»·PEaware :: SWA598 KLAX-KSFO

SWA598 :: KLAX-KSFO

FLIGHT INFORMATION

Flight Status: Arrived
Operator:
Southwest Airlines
More flights by this operator :: More flights under this callsign
Pilot: Maximilliano F. (23467)
Aircraft: BOEING 737-800
(B738)
More flights by this aircraft type
Origin: KLAX Los Angeles Intl
United States
Destination: KSFO San Francisco Intl
United States
More flights between these airports :: More routes between these airports
Route: SUMMR1 STOKD SERFR SERFR3
File this flight plan on PilotEdge
Remarks: RMK / SIMBRIEF
Altitude:
(Current/Filed)
36,000ft
Speed:
(Current/Filed)
464kts
Departed: 07-Oct-19 05:31 PM
Arrived: 07-Oct-19 06:27 PM
Distance/Time
Traveled:
293nm/0:56
Distance/Time
To Go:
Arrived

Flight Plot

Page will automatically refresh every two minutes.

Flight plan parsing failed; only flown route is shown


Map Options




Map Legend


Flown Route
Filed Route
Departure Airport
Arrival Airport
Navaid (VOR, NDB)
Fix

Horizontal Profiles

Position Reports

Time Latitude Longitude Heading Altitude Ground
Speed
07-Oct-19 17:07 33.947242 -118.401890 84 122ft 0kts
07-Oct-19 17:08 33.947242 -118.401890 84 122ft 0kts
07-Oct-19 17:09 33.947242 -118.401890 84 122ft 0kts
07-Oct-19 17:10 33.947242 -118.401890 84 122ft 0kts
07-Oct-19 17:11 33.947242 -118.401890 84 122ft 0kts
07-Oct-19 17:12 33.947242 -118.401890 84 122ft 0kts
07-Oct-19 17:13 33.947242 -118.401890 84 122ft 0kts
07-Oct-19 17:14 33.947242 -118.401890 84 122ft 0kts
07-Oct-19 17:15 33.947242 -118.401890 84 122ft 0kts
07-Oct-19 17:16 33.947242 -118.401890 84 122ft 0kts
07-Oct-19 17:17 33.947242 -118.401890 84 122ft 0kts
07-Oct-19 17:18 33.947242 -118.401890 84 122ft 0kts
07-Oct-19 17:19 33.947242 -118.401891 84 122ft 0kts
07-Oct-19 17:20 33.947114 -118.402480 37 123ft 2kts
07-Oct-19 17:21 33.946845 -118.402551 354 123ft 0kts
07-Oct-19 17:22 33.946845 -118.402551 354 123ft 0kts
07-Oct-19 17:23 33.947499 -118.402587 353 122ft 1kts
07-Oct-19 17:24 33.947583 -118.402599 353 122ft 0kts
07-Oct-19 17:25 33.948732 -118.402836 22 122ft 6kts
07-Oct-19 17:26 33.949422 -118.399336 50 118ft 7kts
07-Oct-19 17:27 33.949475 -118.399271 41 117ft 0kts
07-Oct-19 17:28 33.949475 -118.399271 41 117ft 0kts
07-Oct-19 17:29 33.949792 -118.399115 8 117ft 8kts
07-Oct-19 17:30 33.949273 -118.410649 262 127ft 141kts
07-Oct-19 17:31 33.942766 -118.471524 265 2380ft 216kts
07-Oct-19 17:32 33.938478 -118.555720 265 4923ft 271kts
07-Oct-19 17:33 33.931520 -118.646142 264 5587ft 277kts
07-Oct-19 17:34 33.924692 -118.734041 263 9209ft 290kts
07-Oct-19 17:35 33.917166 -118.837108 268 12194ft 330kts
07-Oct-19 17:36 33.920402 -118.947233 271 16116ft 333kts
07-Oct-19 17:37 33.942847 -119.053804 295 19579ft 342kts
07-Oct-19 17:38 33.992999 -119.153333 299 22601ft 355kts
07-Oct-19 17:39 34.067451 -119.235955 318 25357ft 375kts
07-Oct-19 17:40 34.154027 -119.310169 318 27884ft 386kts
07-Oct-19 17:41 34.242359 -119.386314 317 30184ft 396kts
07-Oct-19 17:42 34.332181 -119.463898 316 32616ft 396kts
07-Oct-19 17:43 34.419126 -119.542256 308 34919ft 381kts
07-Oct-19 17:44 34.493812 -119.634109 307 36007ft 392kts
07-Oct-19 17:45 34.569134 -119.726832 306 36023ft 388kts
07-Oct-19 17:46 34.644382 -119.819750 306 36021ft 387kts
07-Oct-19 17:47 34.719776 -119.913089 306 36020ft 388kts
07-Oct-19 17:48 34.795202 -120.006725 306 36029ft 386kts
07-Oct-19 17:49 34.870392 -120.100331 306 36042ft 387kts
07-Oct-19 17:50 34.945335 -120.193887 306 36043ft 387kts
07-Oct-19 17:51 35.020330 -120.287760 306 36042ft 386kts
07-Oct-19 17:52 35.095316 -120.381680 307 36039ft 386kts
07-Oct-19 17:53 35.174104 -120.469460 309 36036ft 388kts
07-Oct-19 17:54 35.253351 -120.558365 309 36035ft 388kts
07-Oct-19 17:55 35.332707 -120.647615 309 36034ft 388kts
07-Oct-19 17:56 35.411120 -120.736170 308 36043ft 387kts
07-Oct-19 17:57 35.491273 -120.825416 312 36030ft 393kts
07-Oct-19 17:58 35.578528 -120.906306 313 36020ft 394kts
07-Oct-19 17:59 35.666225 -120.987791 313 36018ft 395kts
07-Oct-19 18:00 35.753338 -121.068960 313 36017ft 395kts
07-Oct-19 18:01 35.841019 -121.150875 313 36016ft 396kts
07-Oct-19 18:02 35.928457 -121.232810 313 36024ft 396kts
07-Oct-19 18:03 36.016082 -121.315139 314 36030ft 396kts
07-Oct-19 18:04 36.103367 -121.392214 318 36032ft 401kts
07-Oct-19 18:05 36.199789 -121.467168 319 35183ft 411kts
07-Oct-19 18:06 36.295087 -121.541613 321 32231ft 402kts
07-Oct-19 18:07 36.392063 -121.617733 324 28992ft 416kts
07-Oct-19 18:08 36.486861 -121.692319 324 25988ft 400kts
07-Oct-19 18:09 36.577302 -121.763937 325 23537ft 377kts
07-Oct-19 18:10 36.663287 -121.832030 326 21060ft 359kts
07-Oct-19 18:11 36.747103 -121.892577 340 18796ft 341kts
07-Oct-19 18:12 36.839361 -121.921560 347 16556ft 350kts
07-Oct-19 18:13 36.932342 -121.947479 347 14347ft 333kts
07-Oct-19 18:14 37.019202 -121.979262 342 12272ft 318kts
07-Oct-19 18:15 37.103990 -122.012378 342 10739ft 307kts
07-Oct-19 18:16 37.180320 -122.042228 342 9833ft 266kts
07-Oct-19 18:17 37.252596 -122.070548 342 8439ft 275kts
07-Oct-19 18:18 37.326510 -122.099661 342 6981ft 280kts
07-Oct-19 18:19 37.399523 -122.127497 344 5387ft 271kts
07-Oct-19 18:20 37.472041 -122.152051 343 3781ft 259kts
07-Oct-19 18:21 37.532586 -122.183990 318 3106ft 212kts
07-Oct-19 18:22 37.561927 -122.240196 297 2148ft 171kts
07-Oct-19 18:23 37.583011 -122.290227 297 1255ft 151kts
07-Oct-19 18:24 37.601936 -122.335191 296 480ft 144kts
07-Oct-19 18:25 37.617534 -122.372211 299 15ft 48kts
07-Oct-19 18:26 37.618592 -122.379408 215 33ft 8kts
07-Oct-19 18:27 37.615966 -122.380072 208 33ft 8kts
07-Oct-19 18:28 37.613773 -122.381529 208 34ft 17kts
07-Oct-19 18:29 37.609857 -122.384320 237 33ft 10kts
07-Oct-19 18:30 37.610821 -122.387223 298 33ft 11kts
07-Oct-19 18:31 37.610092 -122.389806 277 29ft 7kts
07-Oct-19 18:32 37.611077 -122.391442 326 29ft 3kts

Navigation Log

Ident Type
Flight plan parsing failed, navigation log unavailable